Asbury, Illinois
Current Conditions -  °F | °C
As of 2:18 PM on Sunday 25 Jan 2015 (Local Time) from KCUL Reporting Station
Light Rain Light Rain  
Wind Chill: 41°   Ceiling: 800
Heat Index: 45°   Visibility: 5mi
Dew Point: 43°   Wind: 6mph
Humidity: 93%   Direction: 160°SSE
Pressure: 29.58"   Gusts: NA
Location:  37.8866°N, 88.266°W
Report Text: KCUL 252018Z AUTO 16005KT 5SM -RA BKN008 OVC011 07/06 A2958 RMK AO2 P0003
Loading
Personal Weather Stations






























Interactive Weather Map New forecast layout! Learn more

10-Day Weather Forecast

Advertisements
Track Severe Weather on mobile